createdAt,value
2019-05-22T00:03:17.341Z,16.13
2019-05-22T00:08:21.450Z,16.07
2019-05-22T00:13:30.037Z,16.11
2019-05-22T00:18:32.843Z,16.08
2019-05-22T00:23:38.267Z,16.11
2019-05-22T00:28:40.975Z,16.07
2019-05-22T00:33:43.671Z,15.84
2019-05-22T00:38:47.498Z,15.81
2019-05-22T00:43:51.034Z,15.84
2019-05-22T00:48:53.934Z,15.81
2019-05-22T00:54:21.188Z,15.82
2019-05-22T00:59:30.974Z,15.77
2019-05-22T01:04:35.347Z,15.73
2019-05-22T01:09:41.078Z,15.58
2019-05-22T01:14:45.144Z,15.60
2019-05-22T01:19:51.378Z,15.75
2019-05-22T01:24:56.252Z,15.61
2019-05-22T01:30:02.361Z,15.56
2019-05-22T01:35:08.814Z,15.35
2019-05-22T01:40:21.953Z,15.50
2019-05-22T01:45:25.786Z,15.42
2019-05-22T01:50:47.298Z,15.21
2019-05-22T01:55:56.604Z,15.18
2019-05-22T02:01:02.289Z,15.04
2019-05-22T02:06:06.842Z,14.90
2019-05-22T02:11:14.183Z,14.87
2019-05-22T02:16:18.075Z,14.82
2019-05-22T02:21:21.971Z,14.78
2019-05-22T02:26:24.690Z,14.76
2019-05-22T02:31:29.887Z,14.87
2019-05-22T02:36:36.478Z,15.09
2019-05-22T02:41:47.712Z,15.16
2019-05-22T02:46:52.537Z,15.05
2019-05-22T02:51:56.587Z,14.99
2019-05-22T02:57:00.437Z,15.13
2019-05-22T03:02:04.147Z,15.13
2019-05-22T03:07:09.253Z,15.12
2019-05-22T03:12:19.540Z,15.11
2019-05-22T03:17:30.026Z,15.07
2019-05-22T03:22:41.601Z,15.00
2019-05-22T03:27:49.640Z,14.90
2019-05-22T03:32:54.703Z,14.89
2019-05-22T03:37:59.313Z,14.94
2019-05-22T03:43:16.000Z,14.80
2019-05-22T03:48:23.104Z,14.78
2019-05-22T03:53:26.519Z,14.86
2019-05-22T03:58:29.840Z,14.92
2019-05-22T04:03:34.446Z,14.81
2019-05-22T04:08:40.159Z,14.92
2019-05-22T04:13:43.668Z,14.97
2019-05-22T04:18:47.573Z,14.88
2019-05-22T04:23:50.819Z,14.90
2019-05-22T04:28:54.351Z,14.88
2019-05-22T04:33:57.755Z,14.98
2019-05-22T04:39:08.641Z,14.83
2019-05-22T04:44:11.673Z,14.85
2019-05-22T04:49:14.681Z,14.86
2019-05-22T04:54:17.690Z,14.89
2019-05-22T04:59:20.982Z,14.95
2019-05-22T05:04:23.833Z,14.97
2019-05-22T05:09:26.846Z,15.10
2019-05-22T05:14:29.951Z,15.21
2019-05-22T05:19:32.966Z,15.34
2019-05-22T05:24:35.688Z,15.35
2019-05-22T05:29:38.600Z,15.41
2019-05-22T05:34:59.542Z,15.44
2019-05-22T05:40:32.922Z,15.50
2019-05-22T05:45:38.091Z,15.45
2019-05-22T05:51:27.003Z,15.23
2019-05-22T05:56:32.845Z,15.13
2019-05-22T06:01:39.747Z,15.19
2019-05-22T06:07:22.116Z,15.16
2019-05-22T06:12:24.860Z,15.24
2019-05-22T06:18:33.771Z,15.07
2019-05-22T06:24:25.245Z,15.00
2019-05-22T06:29:56.539Z,14.97
2019-05-22T06:34:59.829Z,15.12
2019-05-22T06:40:05.031Z,14.88
2019-05-22T06:45:09.540Z,15.02
2019-05-22T06:50:12.350Z,14.98
2019-05-22T06:55:15.638Z,15.14
2019-05-22T07:00:21.526Z,15.23
2019-05-22T07:05:24.513Z,14.94
2019-05-22T07:10:27.715Z,15.15
2019-05-22T07:15:51.482Z,15.27
2019-05-22T07:20:54.483Z,15.35
2019-05-22T07:25:58.958Z,15.23
2019-05-22T07:31:03.670Z,15.22
2019-05-22T07:36:10.868Z,15.48
2019-05-22T07:41:11.802Z,15.57
2019-05-22T07:46:14.672Z,15.62
2019-05-22T07:51:18.550Z,15.77
2019-05-22T07:56:22.030Z,15.61
2019-05-22T08:01:25.725Z,15.69
2019-05-22T08:06:28.728Z,15.72
2019-05-22T08:11:31.850Z,15.68
2019-05-22T08:16:35.695Z,15.65
2019-05-22T08:21:39.412Z,15.65
2019-05-22T08:26:53.984Z,15.82
2019-05-22T08:31:47.104Z,16.20
2019-05-22T08:36:50.208Z,16.25
2019-05-22T08:41:53.321Z,16.11
2019-05-22T08:46:56.333Z,16.10
2019-05-22T08:51:59.501Z,16.04
2019-05-22T08:57:04.312Z,16.16
2019-05-22T09:02:08.933Z,16.35
2019-05-22T09:07:11.743Z,16.40
2019-05-22T09:12:16.348Z,16.29
2019-05-22T09:17:20.647Z,16.07
2019-05-22T09:22:39.639Z,15.92
2019-05-22T09:27:28.792Z,15.93
2019-05-22T09:32:31.563Z,16.03
2019-05-22T09:37:34.347Z,16.08
2019-05-22T09:42:37.541Z,16.55
2019-05-22T09:47:40.378Z,16.55
2019-05-22T09:52:56.921Z,16.60
2019-05-22T09:57:50.709Z,16.34
2019-05-22T10:02:53.615Z,16.79
2019-05-22T10:08:01.628Z,17.10
2019-05-22T10:13:05.018Z,17.40
2019-05-22T10:18:08.617Z,17.69
2019-05-22T10:23:15.860Z,17.82
2019-05-22T10:28:16.638Z,17.96
2019-05-22T10:33:19.438Z,18.22
2019-05-22T10:38:22.630Z,17.99
2019-05-22T10:43:25.763Z,17.81
2019-05-22T10:48:28.679Z,17.91
2019-05-22T10:53:34.173Z,18.08
2019-05-22T10:58:36.094Z,18.19
2019-05-22T11:03:39.927Z,18.02
2019-05-22T11:08:43.911Z,18.33
2019-05-22T11:14:00.577Z,18.55
2019-05-22T11:18:54.155Z,18.50
2019-05-22T11:23:57.169Z,19.17
2019-05-22T11:29:01.867Z,19.14
2019-05-22T11:34:06.082Z,19.55
2019-05-22T11:39:14.000Z,19.58
2019-05-22T11:44:18.748Z,19.63
2019-05-22T11:49:22.237Z,20.13
2019-05-22T11:54:25.313Z,20.29
2019-05-22T11:59:28.131Z,20.06
2019-05-22T12:04:46.546Z,19.67
2019-05-22T12:09:36.765Z,19.47
2019-05-22T12:14:39.864Z,19.49
2019-05-22T12:19:42.878Z,20.18
2019-05-22T12:24:45.879Z,20.66
2019-05-22T12:29:49.181Z,20.59
2019-05-22T12:34:51.993Z,20.76
2019-05-22T12:39:55.291Z,21.00
2019-05-22T12:44:58.216Z,21.13
2019-05-22T12:50:02.740Z,20.32
2019-05-22T12:55:06.852Z,19.84
2019-05-22T13:00:11.510Z,19.69
2019-05-22T13:05:15.448Z,20.51
2019-05-22T13:10:21.578Z,20.72
2019-05-22T13:15:25.444Z,19.44
2019-05-22T13:20:42.450Z,19.30
2019-05-22T13:25:39.177Z,19.60
2019-05-22T13:31:02.990Z,19.71
2019-05-22T13:36:08.468Z,20.20
2019-05-22T13:41:11.573Z,20.51
2019-05-22T13:46:14.868Z,21.18
2019-05-22T13:51:18.071Z,21.80
2019-05-22T13:56:25.343Z,21.81
2019-05-22T14:01:27.511Z,22.21
2019-05-22T14:06:31.096Z,22.35
2019-05-22T14:11:34.271Z,21.58
2019-05-22T14:16:48.120Z,21.61
2019-05-22T14:21:49.818Z,21.71
2019-05-22T14:26:46.903Z,21.73
2019-05-22T14:31:49.847Z,21.90
2019-05-22T14:36:52.864Z,22.01
2019-05-22T14:41:56.100Z,21.98
2019-05-22T14:47:12.295Z,22.13
2019-05-22T14:52:05.477Z,21.43
2019-05-22T14:57:09.003Z,21.16
2019-05-22T15:02:11.805Z,21.70
2019-05-22T15:07:14.529Z,22.13
2019-05-22T15:12:17.333Z,22.45
2019-05-22T15:17:31.650Z,22.22
2019-05-22T15:22:25.487Z,22.20
2019-05-22T15:27:28.289Z,22.48
2019-05-22T15:32:30.988Z,21.25
2019-05-22T15:37:35.473Z,21.15
2019-05-22T15:42:41.378Z,21.67
2019-05-22T15:47:54.238Z,21.67
2019-05-22T15:52:54.854Z,21.39
2019-05-22T15:57:59.237Z,21.91
2019-05-22T16:03:10.234Z,22.49
2019-05-22T16:08:15.200Z,21.74
2019-05-22T16:13:21.505Z,21.38
2019-05-22T16:18:28.799Z,21.96
2019-05-22T16:23:35.408Z,22.49
2019-05-22T16:28:41.810Z,22.96
2019-05-22T16:33:46.613Z,22.81
2019-05-22T16:38:51.097Z,22.47
2019-05-22T16:43:54.591Z,22.69
2019-05-22T16:48:57.500Z,22.72
2019-05-22T16:54:06.497Z,22.60
2019-05-22T16:59:11.306Z,22.72
2019-05-22T17:04:15.437Z,22.51
2019-05-22T17:09:18.760Z,21.99
2019-05-22T17:14:22.946Z,21.58
2019-05-22T17:19:27.805Z,21.40
2019-05-22T17:24:34.145Z,21.41
2019-05-22T17:29:35.901Z,21.26
2019-05-22T17:34:39.252Z,21.04
2019-05-22T17:39:46.055Z,21.12
2019-05-22T17:44:50.937Z,21.00
2019-05-22T17:49:55.491Z,20.88
2019-05-22T17:54:58.310Z,20.83
2019-05-22T18:00:03.008Z,20.77
2019-05-22T18:05:07.883Z,20.61
2019-05-22T18:10:12.665Z,20.49
2019-05-22T18:15:16.787Z,20.40
2019-05-22T18:20:21.291Z,20.32
2019-05-22T18:25:25.101Z,20.24
2019-05-22T18:30:28.329Z,20.16
2019-05-22T18:35:31.157Z,20.11
2019-05-22T18:40:33.963Z,20.05
2019-05-22T18:45:38.215Z,19.88
2019-05-22T18:50:41.217Z,19.77
2019-05-22T18:55:44.213Z,19.63
2019-05-22T19:00:47.060Z,19.55
2019-05-22T19:05:50.095Z,19.06
2019-05-22T19:10:53.100Z,19.06
2019-05-22T19:15:55.987Z,19.02
2019-05-22T19:21:00.196Z,18.89
2019-05-22T19:26:05.730Z,18.59
2019-05-22T19:31:08.117Z,18.42
2019-05-22T19:36:11.080Z,18.28
2019-05-22T19:41:14.317Z,18.15
2019-05-22T19:46:17.520Z,18.00
2019-05-22T19:51:20.847Z,17.81
2019-05-22T19:56:24.127Z,17.72
2019-05-22T20:01:28.548Z,17.57
2019-05-22T20:06:31.762Z,17.39
2019-05-22T20:11:34.471Z,17.27
2019-05-22T20:16:37.583Z,17.09
2019-05-22T20:21:41.012Z,16.99
2019-05-22T20:26:44.058Z,16.92
2019-05-22T20:31:47.561Z,16.83
2019-05-22T20:36:50.352Z,16.69
2019-05-22T20:41:53.496Z,16.59
2019-05-22T20:46:56.607Z,16.27
2019-05-22T20:51:59.529Z,16.24
2019-05-22T20:57:04.180Z,16.23
2019-05-22T21:02:08.315Z,16.14
2019-05-22T21:07:12.136Z,16.01
2019-05-22T21:12:16.548Z,15.94
2019-05-22T21:17:19.550Z,15.94
2019-05-22T21:22:24.449Z,15.88
2019-05-22T21:27:27.610Z,15.75
2019-05-22T21:32:30.419Z,15.69
2019-05-22T21:37:33.138Z,15.63
2019-05-22T21:42:41.096Z,15.55
2019-05-22T21:47:44.027Z,15.50
2019-05-22T21:52:46.934Z,15.42
2019-05-22T21:57:50.276Z,15.35
2019-05-22T22:02:55.274Z,15.25
2019-05-22T22:07:58.785Z,15.21
2019-05-22T22:13:01.966Z,15.17
2019-05-22T22:18:07.801Z,15.11
2019-05-22T22:23:14.031Z,15.03
2019-05-22T22:28:17.765Z,14.93
2019-05-22T22:33:27.475Z,14.88
2019-05-22T22:38:32.273Z,14.75
2019-05-22T22:43:38.673Z,14.59
2019-05-22T22:48:43.293Z,14.61
2019-05-22T22:53:45.992Z,14.63
2019-05-22T22:58:48.699Z,14.56
2019-05-22T23:03:56.109Z,14.52
2019-05-22T23:08:59.121Z,14.45
2019-05-22T23:14:02.551Z,14.40
2019-05-22T23:19:40.921Z,14.37
2019-05-22T23:24:45.510Z,14.30
2019-05-22T23:29:50.415Z,14.28
2019-05-22T23:34:54.788Z,14.23
2019-05-22T23:39:58.719Z,14.18
2019-05-22T23:45:06.295Z,14.14
2019-05-22T23:50:09.396Z,14.06
2019-05-22T23:55:14.007Z,13.97
